Pagrindinis puslapis
METAR-TAF:

METAR-TAF

Oro uostai :

Colmar, Prancūzija

platuma: 48-06-37N, ilguma: 7-21-33E, Aukštis: 191 m

Dabartinis oras

Ataskaita buvo paskelbta 31 minutes, ne 09:00 UTC
Vėjas 5 kt iš Šiaurės, svyruoja nuo Šiaurės/Šiaurės Vakarų ir Šiaurės Rytų
Temperatūra 13°C
Drėgmė 51%
Slėgis 1027 hPa
Matomumas 10 km arba daugiau
nėra debesų žemiau 1500 m ir nėra kamuolinių lietaus debesų

METAR: LFGA 200900Z AUTO 01005KT 330V050 CAVOK 13/03 Q1027

Laikas: 11:31 (09:31 UTC)


TAF: trūkstamas

Orai ataskaitas ir orų prognozės (METAR, TAF).

turimą stotys yra geltonos ir raudonos taškus žemėlapyje.

Perkelti pele per norėdami pamatyti stoties vardą.

Tada spustelėkite, norėdami matyti oro stebėjimo ir prognozės.

Norėdami pakeisti žemėlapį: spustelėkite ant žalios mygtukų su juodo kryžiaus žemyn,; žalią mygtuką su brūkšneliu, jei norite nutolinti; arba žalių rodyklių gretimoms žemėlapius.


METAR-TAF: